createdAt,value
2023-02-12T00:00:59.330Z,12.32
2023-02-12T00:06:03.074Z,11.15
2023-02-12T00:11:11.325Z,11.13
2023-02-12T00:16:17.962Z,13.23
2023-02-12T00:21:21.190Z,12.63
2023-02-12T00:26:24.692Z,11.10
2023-02-12T00:31:30.838Z,13.05
2023-02-12T00:36:33.804Z,13.75
2023-02-12T00:41:36.638Z,13.30
2023-02-12T00:46:40.856Z,11.15
2023-02-12T00:51:43.662Z,11.30
2023-02-12T00:56:46.482Z,11.98
2023-02-12T01:01:50.770Z,14.20
2023-02-12T01:06:53.657Z,10.98
2023-02-12T01:11:56.539Z,13.10
2023-02-12T01:17:00.722Z,11.68
2023-02-12T01:22:03.621Z,12.63
2023-02-12T01:27:06.488Z,12.85
2023-02-12T01:32:10.692Z,12.07
2023-02-12T01:37:13.566Z,11.80
2023-02-12T01:42:18.616Z,11.32
2023-02-12T01:47:22.817Z,13.07
2023-02-12T01:52:29.856Z,13.75
2023-02-12T01:57:35.017Z,13.27
2023-02-12T02:02:40.737Z,13.60
2023-02-12T02:07:45.262Z,13.82
2023-02-12T02:13:05.749Z,13.75
2023-02-12T02:18:17.118Z,11.75
2023-02-12T02:23:40.536Z,12.30
2023-02-12T02:29:14.573Z,12.70
2023-02-12T02:34:26.820Z,11.85
2023-02-12T02:39:34.957Z,12.63
2023-02-12T02:44:43.200Z,14.38
2023-02-12T02:49:51.189Z,11.77
2023-02-12T02:54:56.932Z,15.20
2023-02-12T03:00:06.226Z,12.65
2023-02-12T03:05:16.136Z,14.75
2023-02-12T03:10:21.701Z,13.93
2023-02-12T03:15:32.510Z,11.52
2023-02-12T03:20:42.829Z,11.40
2023-02-12T03:25:53.728Z,12.45
2023-02-12T03:31:04.003Z,13.05
2023-02-12T03:36:16.853Z,12.82
2023-02-12T03:41:26.282Z,12.13
2023-02-12T03:46:39.597Z,13.45
2023-02-12T03:51:46.435Z,13.10
2023-02-12T03:56:53.112Z,11.88
2023-02-12T04:01:58.913Z,11.98
2023-02-12T04:07:03.508Z,10.63
2023-02-12T04:12:22.019Z,12.43
2023-02-12T04:17:36.265Z,13.50
2023-02-12T04:22:51.523Z,13.30
2023-02-12T04:28:01.642Z,11.13
2023-02-12T04:33:06.733Z,12.63
2023-02-12T04:38:16.095Z,13.70
2023-02-12T04:43:28.598Z,11.43
2023-02-12T04:48:31.614Z,11.75
2023-02-12T04:53:35.753Z,13.30
2023-02-12T04:58:38.625Z,11.18
2023-02-12T05:03:41.408Z,11.63
2023-02-12T05:08:45.675Z,12.70
2023-02-12T05:13:50.347Z,10.55
2023-02-12T05:18:53.388Z,9.85
2023-02-12T05:23:57.641Z,12.05
2023-02-12T05:29:00.491Z,8.75
2023-02-12T05:34:03.391Z,9.82
2023-02-12T05:39:08.011Z,9.93
2023-02-12T05:44:11.920Z,9.48
2023-02-12T05:49:14.816Z,10.50
2023-02-12T05:54:19.040Z,11.63
2023-02-12T05:59:24.379Z,13.45
2023-02-12T06:04:29.567Z,10.90
2023-02-12T06:09:34.336Z,10.35
2023-02-12T06:14:37.179Z,9.90
2023-02-12T06:19:40.060Z,10.27
2023-02-12T06:24:44.318Z,11.45
2023-02-12T06:29:47.190Z,12.52
2023-02-12T06:34:49.989Z,13.23
2023-02-12T06:39:54.167Z,11.18
2023-02-12T06:44:56.990Z,13.25
2023-02-12T06:49:59.814Z,9.88
2023-02-12T06:55:04.091Z,11.10
2023-02-12T07:00:08.241Z,12.32
2023-02-12T07:05:11.491Z,10.05
2023-02-12T07:10:15.665Z,10.45
2023-02-12T07:15:18.715Z,11.18
2023-02-12T07:20:21.692Z,10.73
2023-02-12T07:25:25.982Z,11.02
2023-02-12T07:30:28.811Z,9.60
2023-02-12T07:35:31.656Z,9.00
2023-02-12T07:40:37.668Z,8.60
2023-02-12T07:45:40.505Z,8.25
2023-02-12T07:50:43.335Z,8.15
2023-02-12T07:55:47.591Z,9.30
2023-02-12T08:00:50.402Z,13.82
2023-02-12T08:05:53.621Z,12.05
2023-02-12T08:10:58.555Z,10.85
2023-02-12T08:16:02.378Z,9.00
2023-02-12T08:21:06.402Z,8.48
2023-02-12T08:26:12.806Z,10.88
2023-02-12T08:31:17.509Z,15.00
2023-02-12T08:36:22.836Z,13.80
2023-02-12T08:41:28.732Z,11.73
2023-02-12T08:46:33.728Z,10.70
2023-02-12T08:51:37.916Z,10.02
2023-02-12T08:56:42.659Z,15.75
2023-02-12T09:01:46.158Z,11.65
2023-02-12T09:06:50.055Z,10.65
2023-02-12T09:11:54.391Z,16.42
2023-02-12T09:16:58.168Z,10.60
2023-02-12T09:22:01.117Z,13.00
2023-02-12T09:27:05.823Z,9.15
2023-02-12T09:32:09.368Z,11.55
2023-02-12T09:37:12.333Z,13.80
2023-02-12T09:42:23.522Z,10.90
2023-02-12T09:47:33.288Z,10.20
2023-02-12T09:52:37.350Z,10.40
2023-02-12T09:57:42.072Z,15.00
2023-02-12T10:02:44.934Z,9.38
2023-02-12T10:08:03.049Z,9.10
2023-02-12T10:13:10.785Z,9.25
2023-02-12T10:18:34.961Z,6.43
2023-02-12T10:23:56.711Z,6.72
2023-02-12T10:29:12.331Z,6.78
2023-02-12T10:34:20.245Z,8.85
2023-02-12T10:39:25.447Z,6.43
2023-02-12T10:44:30.201Z,6.43
2023-02-12T10:49:33.934Z,5.90
2023-02-12T10:54:42.517Z,6.18
2023-02-12T10:59:48.655Z,4.88
2023-02-12T11:04:52.205Z,5.78
2023-02-12T11:09:57.755Z,4.43
2023-02-12T11:15:04.573Z,5.28
2023-02-12T11:20:26.843Z,7.28
2023-02-12T11:25:31.575Z,7.15
2023-02-12T11:30:36.607Z,4.80
2023-02-12T11:35:51.365Z,5.38
2023-02-12T11:41:00.002Z,5.25
2023-02-12T11:46:06.459Z,6.30
2023-02-12T11:51:18.495Z,7.18
2023-02-12T11:56:22.074Z,5.50
2023-02-12T12:01:31.183Z,5.75
2023-02-12T12:06:37.580Z,4.47
2023-02-12T12:11:48.896Z,5.25
2023-02-12T12:17:17.145Z,5.40
2023-02-12T12:22:29.669Z,4.78
2023-02-12T12:27:56.626Z,3.38
2023-02-12T12:33:04.679Z,4.28
2023-02-12T12:38:20.770Z,3.78
2023-02-12T12:43:32.487Z,4.30
2023-02-12T12:48:49.193Z,4.38
2023-02-12T12:54:04.429Z,4.22
2023-02-12T12:59:25.462Z,4.40
2023-02-12T13:04:48.109Z,5.43
2023-02-12T13:10:04.965Z,4.10
2023-02-12T13:15:18.506Z,3.88
2023-02-12T13:20:28.873Z,4.78
2023-02-12T13:25:37.822Z,3.63
2023-02-12T13:30:46.131Z,4.30
2023-02-12T13:35:54.680Z,3.72
2023-02-12T13:41:00.884Z,3.03
2023-02-12T13:46:09.693Z,3.08
2023-02-12T13:51:22.447Z,4.05
2023-02-12T13:56:35.460Z,4.25
2023-02-12T14:01:47.051Z,3.85
2023-02-12T14:06:59.796Z,3.05
2023-02-12T14:12:06.620Z,3.13
2023-02-12T14:17:51.649Z,3.65
2023-02-12T14:23:27.305Z,4.78
2023-02-12T14:28:48.938Z,2.88
2023-02-12T14:33:53.363Z,2.83
2023-02-12T14:39:04.825Z,2.70
2023-02-12T14:44:44.477Z,3.08
2023-02-12T14:49:50.145Z,3.03
2023-02-12T14:54:56.339Z,2.50
2023-02-12T15:00:02.166Z,3.40
2023-02-12T15:05:15.005Z,3.30
2023-02-12T15:10:21.727Z,3.28
2023-02-12T15:15:30.732Z,3.88
2023-02-12T15:20:39.552Z,2.95
2023-02-12T15:25:45.801Z,3.13
2023-02-12T15:30:48.875Z,2.90
2023-02-12T15:35:51.854Z,2.58
2023-02-12T15:40:58.322Z,2.67
2023-02-12T15:46:01.754Z,2.60
2023-02-12T15:51:11.571Z,2.20
2023-02-12T15:56:18.988Z,3.10
2023-02-12T16:01:24.293Z,3.03
2023-02-12T16:06:29.537Z,1.88
2023-02-12T16:11:34.631Z,2.88
2023-02-12T16:16:44.574Z,2.08
2023-02-12T16:21:50.611Z,2.75
2023-02-12T16:26:55.745Z,2.72
2023-02-12T16:32:01.024Z,2.65
2023-02-12T16:37:20.366Z,2.70
2023-02-12T16:42:29.247Z,2.15
2023-02-12T16:47:32.134Z,1.77
2023-02-12T16:52:39.068Z,2.25
2023-02-12T16:57:43.416Z,2.10
2023-02-12T17:02:47.224Z,1.95
2023-02-12T17:07:50.213Z,2.88
2023-02-12T17:12:54.419Z,2.30
2023-02-12T17:17:57.417Z,2.35
2023-02-12T17:23:00.888Z,1.83
2023-02-12T17:28:05.356Z,1.80
2023-02-12T17:33:08.377Z,2.72
2023-02-12T17:38:11.209Z,3.08
2023-02-12T17:43:15.441Z,2.33
2023-02-12T17:48:18.481Z,1.88
2023-02-12T17:53:21.355Z,1.52
2023-02-12T17:58:25.777Z,2.00
2023-02-12T18:03:28.626Z,2.45
2023-02-12T18:08:32.035Z,1.60
2023-02-12T18:13:36.256Z,1.75
2023-02-12T18:18:40.592Z,1.75
2023-02-12T18:23:44.126Z,2.58
2023-02-12T18:28:48.722Z,1.75
2023-02-12T18:33:51.668Z,1.88
2023-02-12T18:38:54.701Z,1.73
2023-02-12T18:43:59.783Z,1.60
2023-02-12T18:49:02.964Z,1.85
2023-02-12T18:54:08.808Z,1.42
2023-02-12T18:59:15.518Z,2.15
2023-02-12T19:04:20.185Z,1.60
2023-02-12T19:09:25.839Z,2.22
2023-02-12T19:14:30.462Z,1.58
2023-02-12T19:19:33.320Z,1.38
2023-02-12T19:24:46.157Z,1.95
2023-02-12T19:29:51.257Z,4.95
2023-02-12T19:34:54.369Z,7.22
2023-02-12T19:39:57.193Z,10.45
2023-02-12T19:45:01.410Z,7.13
2023-02-12T19:50:04.900Z,8.63
2023-02-12T19:55:08.001Z,6.00
2023-02-12T20:00:14.022Z,6.63
2023-02-12T20:05:17.220Z,5.43
2023-02-12T20:10:20.181Z,5.78
2023-02-12T20:15:25.439Z,5.50
2023-02-12T20:20:28.312Z,5.70
2023-02-12T20:25:31.343Z,4.07
2023-02-12T20:30:35.551Z,4.35
2023-02-12T20:35:38.853Z,5.82
2023-02-12T20:40:41.675Z,5.40
2023-02-12T20:45:45.892Z,4.10
2023-02-12T20:50:48.745Z,6.07
2023-02-12T20:55:51.560Z,5.22
2023-02-12T21:00:56.387Z,5.53
2023-02-12T21:05:59.457Z,4.53
2023-02-12T21:11:04.295Z,3.47
2023-02-12T21:16:11.424Z,3.05
2023-02-12T21:21:16.202Z,4.57
2023-02-12T21:26:21.735Z,4.00
2023-02-12T21:31:28.272Z,6.38
2023-02-12T21:36:33.566Z,3.60
2023-02-12T21:41:38.162Z,11.65
2023-02-12T21:46:42.928Z,3.20
2023-02-12T21:51:46.079Z,4.13
2023-02-12T21:56:50.759Z,2.75
2023-02-12T22:01:58.328Z,2.97
2023-02-12T22:07:03.124Z,3.08
2023-02-12T22:12:06.752Z,3.22
2023-02-12T22:17:10.928Z,2.85
2023-02-12T22:22:13.770Z,3.40
2023-02-12T22:27:16.580Z,3.28
2023-02-12T22:32:20.872Z,3.85
2023-02-12T22:37:23.781Z,3.03
2023-02-12T22:42:26.659Z,2.40
2023-02-12T22:47:32.070Z,3.53
2023-02-12T22:52:34.882Z,2.30
2023-02-12T22:57:37.775Z,2.40
2023-02-12T23:02:42.152Z,3.75
2023-02-12T23:07:45.028Z,2.80
2023-02-12T23:12:47.952Z,2.33
2023-02-12T23:17:52.413Z,2.75
2023-02-12T23:22:55.248Z,3.13
2023-02-12T23:27:58.144Z,3.80
2023-02-12T23:33:02.359Z,2.33
2023-02-12T23:38:05.530Z,2.15
2023-02-12T23:43:09.038Z,2.72
2023-02-12T23:48:13.685Z,2.60
2023-02-12T23:53:17.752Z,3.55
2023-02-12T23:58:20.941Z,2.65
